TimePDT,TemperatureF,Dew PointF,Humidity,Sea Level PressureIn,VisibilityMPH,Wind Direction,Wind SpeedMPH,Gust SpeedMPH,PrecipitationIn,Events,Conditions,WindDirDegrees,DateUTC
12:53 AM,39.9,28.9,65,30.44,10.0,Calm,Calm,-,N/A,,Clear,0,2013-04-23 07:53:00
1:53 AM,39.0,30.0,70,30.43,9.0,East,4.6,-,N/A,,Clear,100,2013-04-23 08:53:00
2:53 AM,37.0,28.9,73,30.41,9.0,East,3.5,-,N/A,,Clear,80,2013-04-23 09:53:00
3:53 AM,36.0,28.0,73,30.40,9.0,Calm,Calm,-,N/A,,Clear,0,2013-04-23 10:53:00
4:53 AM,35.1,27.0,72,30.39,9.0,Calm,Calm,-,N/A,,Clear,0,2013-04-23 11:53:00
5:53 AM,34.0,28.0,79,30.38,9.0,ESE,5.8,-,N/A,,Clear,120,2013-04-23 12:53:00
6:53 AM,36.0,28.9,76,30.38,8.0,Calm,Calm,-,N/A,,Clear,0,2013-04-23 13:53:00
7:53 AM,41.0,32.0,70,30.36,8.0,ESE,3.5,-,N/A,,Clear,110,2013-04-23 14:53:00
8:53 AM,46.9,34.0,61,30.35,8.0,Calm,Calm,-,N/A,,Clear,0,2013-04-23 15:53:00
9:17 AM,50.0,37.4,62,30.34,8.0,Variable,3.5,-,N/A,,Scattered Clouds,0,2013-04-23 16:17:00
9:53 AM,52.0,42.1,69,30.33,7.0,WSW,8.1,-,N/A,,Clear,250,2013-04-23 16:53:00
10:53 AM,53.1,43.0,69,30.32,6.0,West,5.8,-,N/A,,Haze,260,2013-04-23 17:53:00
11:53 AM,55.9,44.1,64,30.32,6.0,Variable,4.6,-,N/A,,Haze,0,2013-04-23 18:53:00
12:53 PM,57.9,44.1,60,30.29,7.0,WNW,5.8,-,N/A,,Mostly Cloudy,290,2013-04-23 19:53:00
1:53 PM,60.1,45.0,57,30.28,7.0,SW,9.2,-,N/A,,Clear,230,2013-04-23 20:53:00
2:53 PM,60.1,45.0,57,30.27,8.0,West,9.2,16.1,N/A,,Clear,270,2013-04-23 21:53:00
3:53 PM,62.1,45.0,53,30.25,8.0,WNW,6.9,-,N/A,,Clear,300,2013-04-23 22:53:00
4:53 PM,66.9,27.0,22,30.24,9.0,NE,10.4,19.6,N/A,,Clear,50,2013-04-23 23:53:00
5:53 PM,66.0,28.9,25,30.23,9.0,NE,11.5,19.6,N/A,,Clear,50,2013-04-24 00:53:00
6:53 PM,64.0,28.9,27,30.23,9.0,NE,13.8,21.9,N/A,,Clear,50,2013-04-24 01:53:00
7:53 PM,60.1,30.0,32,30.25,9.0,NE,8.1,-,N/A,,Clear,50,2013-04-24 02:53:00
8:53 PM,55.9,28.9,36,30.26,10.0,NE,10.4,-,N/A,,Clear,50,2013-04-24 03:53:00
9:53 PM,57.0,27.0,32,30.27,10.0,NNE,10.4,-,N/A,,Clear,30,2013-04-24 04:53:00
10:53 PM,48.9,28.9,46,30.29,10.0,Calm,Calm,-,N/A,,Clear,0,2013-04-24 05:53:00
11:53 PM,46.9,30.9,54,30.29,10.0,East,6.9,-,N/A,,Clear,90,2013-04-24 06:53:00